Terminal Aerodrome Forecast
Issued by NWS

Home | Current Version | Previous Version | Text Only | Print | Product List | Glossary On
Versions: 1 2 3 4 5 6 7 8 9 10 11 12 13
430
FTUS42 TJSJ 241741
TAFIST
TAF
TIST 241741Z 2418/2518 12015G25KT P6SM SCT030
     FM242300 09008KT P6SM FEW025
     FM251300 10008KT P6SM FEW030 FEW060=

USA.gov is the U.S. government's official web portal to all federal, state and local government web resources and services.